createdAt,value
2023-04-28T03:55:01.905Z,3344.0
2023-04-28T03:56:00.843Z,3631.5
2023-04-28T03:57:00.847Z,3727.3
2023-04-28T03:58:00.874Z,3775.3
2023-04-28T03:59:00.837Z,3907.6
2023-04-28T04:00:08.316Z,3995.8
2023-04-28T04:01:00.920Z,4142.3
2023-04-28T04:02:01.970Z,4252.1
2023-04-28T04:03:00.913Z,4337.6
2023-04-28T04:04:00.988Z,4475.8
2023-04-28T04:05:01.369Z,4588.9
2023-04-28T04:06:00.902Z,4750.1
2023-04-28T04:07:00.840Z,4886.5
2023-04-28T04:08:01.082Z,5003.4
2023-04-28T04:09:00.838Z,5165.1
2023-04-28T04:10:03.415Z,5437.4
2023-04-28T04:11:00.866Z,5753.7
2023-04-28T04:12:00.844Z,6070.1
2023-04-28T04:13:00.878Z,6386.4
2023-04-28T04:14:00.849Z,6767.3
2023-04-28T04:15:01.746Z,7148.3
2023-04-28T04:16:00.856Z,7566.6
2023-04-28T04:17:00.843Z,7984.9
2023-04-28T04:18:00.904Z,8403.3
2023-04-28T04:19:05.867Z,8855.6
2023-04-28T04:20:01.203Z,9307.9
2023-04-28T04:21:00.849Z,9752.3
2023-04-28T04:22:00.841Z,10196.7
2023-04-28T04:23:00.873Z,10641.1
2023-04-28T04:24:00.850Z,11031.5
2023-04-28T04:25:01.069Z,11421.8
2023-04-28T04:26:00.848Z,11762.5
2023-04-28T04:27:00.882Z,12103.1
2023-04-28T04:28:00.885Z,12443.8
2023-04-28T04:29:00.848Z,12773.7
2023-04-28T04:30:08.372Z,13103.5
2023-04-28T04:31:00.856Z,13404.7
2023-04-28T04:32:00.854Z,13705.8
2023-04-28T04:33:00.921Z,14006.9
2023-04-28T04:34:00.857Z,14319.1
2023-04-28T04:35:01.808Z,14631.3
2023-04-28T04:36:04.029Z,14982.9
2023-04-28T04:37:00.842Z,15334.4
2023-04-28T04:38:00.886Z,15685.9
2023-04-28T04:39:05.859Z,16098.7
2023-04-28T04:40:07.873Z,16511.5
2023-04-28T04:41:00.859Z,17003.1
2023-04-28T04:42:07.415Z,17494.7
2023-04-28T04:43:00.923Z,17986.3
2023-04-28T04:44:00.855Z,18439.1
2023-04-28T04:45:01.921Z,18891.8
2023-04-28T04:46:00.851Z,19371.6
2023-04-28T04:47:00.963Z,19851.4
2023-04-28T04:48:00.895Z,20331.2
2023-04-28T04:49:00.859Z,20733.8
2023-04-28T04:50:01.672Z,21136.4
2023-04-28T04:51:00.856Z,21490.4
2023-04-28T04:52:00.860Z,21844.4
2023-04-28T04:53:00.921Z,22198.4
2023-04-28T04:54:00.849Z,22491.0
2023-04-28T04:55:01.862Z,22783.6
2023-04-28T04:56:00.849Z,22898.1
2023-04-28T04:57:00.849Z,23012.5
2023-04-28T04:58:00.883Z,23127.0
2023-04-28T04:59:00.872Z,23115.7
2023-04-28T05:00:03.083Z,23104.3
2023-04-28T05:01:00.873Z,22973.7
2023-04-28T05:02:00.990Z,22843.0
2023-04-28T05:03:01.138Z,22712.3
2023-04-28T05:04:00.990Z,22563.7
2023-04-28T05:05:23.534Z,22415.1
2023-04-28T05:06:01.905Z,22278.7
2023-04-28T05:07:00.852Z,22142.2
2023-04-28T05:08:01.353Z,22005.7
2023-04-28T05:09:00.866Z,21950.6
2023-04-28T05:10:01.769Z,21895.5
2023-04-28T05:11:00.864Z,22033.7
2023-04-28T05:12:00.858Z,22172.0
2023-04-28T05:13:00.862Z,22310.3
2023-04-28T05:14:00.858Z,22730.7
2023-04-28T05:15:01.847Z,23151.2
2023-04-28T05:16:00.880Z,23936.1
2023-04-28T05:17:01.894Z,24721.1
2023-04-28T05:18:00.876Z,25506.0
2023-04-28T05:19:00.890Z,26587.3
2023-04-28T05:20:01.078Z,27668.7
2023-04-28T05:21:00.879Z,28891.5
2023-04-28T05:22:00.875Z,30114.3
2023-04-28T05:23:00.862Z,31337.1
2023-04-28T05:24:00.911Z,33700.7
2023-04-28T05:25:22.109Z,36064.4
2023-04-28T05:26:00.844Z,38375.5
2023-04-28T05:27:00.868Z,40686.5
2023-04-28T05:28:00.867Z,42997.6
2023-04-28T05:29:00.902Z,44997.1
2023-04-28T05:30:01.772Z,46996.7
2023-04-28T05:31:00.896Z,48980.7
2023-04-28T05:32:00.883Z,50964.7
2023-04-28T05:33:00.870Z,52948.7
2023-04-28T05:34:00.922Z,54574.7
2023-04-28T05:35:01.701Z,56200.8
2023-04-28T05:36:00.875Z,57403.1
2023-04-28T05:37:00.864Z,58605.5
2023-04-28T05:38:00.875Z,59807.8
2023-04-28T05:39:00.892Z,59849.5
2023-04-28T05:40:01.810Z,59891.3
2023-04-28T05:41:00.865Z,59916.8
2023-04-28T05:42:00.886Z,59942.3
2023-04-28T05:43:00.869Z,59967.9
2023-04-28T05:44:05.867Z,59530.5
2023-04-28T05:45:01.753Z,59093.2
2023-04-28T05:46:00.887Z,58727.5
2023-04-28T05:47:02.050Z,58361.9
2023-04-28T05:48:00.909Z,57996.2
2023-04-28T05:49:00.914Z,57150.7
2023-04-28T05:50:01.829Z,56305.1
2023-04-28T05:51:00.876Z,56384.0
2023-04-28T05:52:00.990Z,56462.9
2023-04-28T05:53:00.878Z,56541.7
2023-04-28T05:54:04.011Z,56208.2
2023-04-28T05:55:04.001Z,55874.7
2023-04-28T05:56:00.877Z,55234.5
2023-04-28T05:57:01.550Z,54594.4
2023-04-28T05:58:00.875Z,53954.3
2023-04-28T05:59:00.911Z,54892.6
2023-04-28T06:00:03.560Z,55830.9
2023-04-28T06:01:00.877Z,56393.3
2023-04-28T06:02:00.950Z,56955.7
2023-04-28T06:03:01.001Z,57518.1
2023-04-28T06:04:01.496Z,58625.4
2023-04-28T06:05:19.572Z,59732.7
2023-04-28T06:06:00.918Z,60149.3
2023-04-28T06:07:05.874Z,60566.0
2023-04-28T06:08:00.900Z,60982.7
2023-04-28T08:00:03.394Z,65535.0
2023-04-28T10:30:01.470Z,65535.0
2023-04-28T10:45:01.545Z,65535.0
2023-04-28T12:15:01.653Z,65535.0
2023-04-28T15:30:01.878Z,65535.0
2023-04-28T15:44:00.833Z,64882.5
2023-04-28T15:45:01.277Z,64229.9
2023-04-28T15:47:00.608Z,62525.1
2023-04-28T15:48:00.589Z,61472.7
2023-04-28T15:49:00.784Z,60375.7
2023-04-28T15:50:00.624Z,59278.6
2023-04-28T15:51:00.570Z,58181.5
2023-04-28T15:52:00.573Z,57209.7
2023-04-28T15:53:00.575Z,56237.8
2023-04-28T15:54:15.583Z,55437.7
2023-04-28T15:56:00.585Z,53837.6
2023-04-28T15:57:00.571Z,53221.9
2023-04-28T16:37:01.100Z,38502.0
2023-04-28T16:38:01.095Z,38938.5
2023-04-28T16:39:01.101Z,39735.8
2023-04-28T16:40:01.314Z,40267.3
2023-04-28T16:41:01.090Z,40647.0
2023-04-28T16:42:01.099Z,41085.3
2023-04-28T16:43:01.110Z,41426.1
2023-04-28T16:44:01.097Z,41950.8
2023-04-28T16:46:01.113Z,42737.8
2023-04-28T16:47:01.094Z,43110.6
2023-04-28T16:48:01.145Z,43430.1
2023-04-28T16:49:01.104Z,43385.7
2023-04-28T16:51:01.135Z,44070.4
2023-04-28T16:52:01.124Z,43826.9
2023-04-28T16:53:01.101Z,43583.5
2023-04-28T16:54:01.104Z,42773.5
2023-04-28T16:56:01.301Z,41153.5
2023-04-28T16:57:01.532Z,40007.4
2023-04-28T16:58:01.100Z,38861.3
2023-04-28T16:59:01.092Z,37361.2
2023-04-28T17:01:01.172Z,34360.9
2023-04-28T17:02:01.093Z,32723.9
2023-04-28T17:03:01.206Z,31086.8
2023-04-28T17:04:01.185Z,29711.9
2023-04-28T17:06:01.119Z,26962.0
2023-04-28T17:07:01.124Z,25973.9
2023-04-28T17:08:01.105Z,24985.7
2023-04-28T17:09:01.106Z,24344.1
2023-04-28T17:10:01.851Z,23702.5
2023-04-28T17:12:01.243Z,22586.9
2023-04-28T17:13:01.108Z,22112.9
2023-04-28T17:14:01.139Z,21722.1
2023-04-28T17:17:01.111Z,20509.7
2023-04-28T17:18:01.117Z,20078.8
2023-04-28T17:19:01.129Z,19568.3
2023-04-28T17:20:01.386Z,19057.7
2023-04-28T17:21:02.185Z,18547.2
2023-04-28T17:22:01.101Z,17942.1
2023-04-28T17:23:01.139Z,17336.9
2023-04-28T17:24:01.104Z,16677.9
2023-04-28T17:26:01.166Z,15359.7
2023-04-28T17:27:01.100Z,14706.3
2023-04-28T17:28:01.102Z,14052.8
2023-04-28T17:29:01.131Z,13430.8
2023-04-28T17:32:01.180Z,11610.7
2023-04-28T17:33:01.131Z,11034.5
2023-04-28T17:34:01.100Z,10541.5
2023-04-28T17:35:02.132Z,10048.4
2023-04-28T17:36:01.109Z,9555.3
2023-04-28T17:37:01.151Z,9139.5
2023-04-28T17:38:01.179Z,8723.7
2023-04-28T17:39:01.136Z,8375.6
2023-04-28T17:40:01.381Z,8027.5
2023-04-28T17:41:01.111Z,7679.3
2023-04-28T17:42:01.117Z,7396.5
2023-04-28T17:43:01.115Z,7113.6
2023-04-28T17:44:01.101Z,6886.7
2023-04-28T17:46:01.114Z,6433.0
2023-04-28T17:47:01.241Z,6257.4
2023-04-28T17:48:01.196Z,6081.8
2023-04-28T17:49:01.108Z,5943.5
2023-04-28T17:50:02.679Z,5805.3
2023-04-28T17:52:01.122Z,5564.5
2023-04-28T17:53:01.115Z,5461.9
2023-04-28T17:54:01.112Z,5395.8
2023-04-28T17:56:01.131Z,5329.7
2023-04-28T17:57:01.104Z,5277.5
2023-04-28T17:58:01.109Z,5241.0
2023-04-28T17:59:01.099Z,5217.7
2023-04-28T18:01:01.187Z,5201.8
2023-04-28T18:02:01.123Z,5195.1
2023-04-28T18:03:01.137Z,5207.5
2023-04-28T18:04:01.118Z,5192.1
2023-04-28T18:05:16.113Z,5195.3
2023-04-28T18:06:02.917Z,5198.4
2023-04-28T18:07:01.093Z,5159.8
2023-04-28T18:08:01.098Z,5127.2
2023-04-28T18:27:01.042Z,2509.0
2023-04-28T18:28:01.046Z,2497.5
2023-04-28T18:29:01.038Z,2450.8
2023-04-28T18:31:01.040Z,2397.4
2023-04-28T18:32:01.141Z,2352.4
2023-04-28T18:33:01.039Z,2317.3
2023-04-28T18:34:01.046Z,2269.0
2023-04-28T18:35:02.225Z,2229.5
2023-04-28T18:36:01.043Z,2196.5
2023-04-28T18:37:01.036Z,2154.5
2023-04-28T18:38:01.041Z,2118.4
2023-04-28T18:39:07.892Z,2075.3
2023-04-28T18:40:01.292Z,2004.7
2023-04-28T18:41:01.057Z,1934.0
2023-04-28T18:42:01.034Z,1857.0
2023-04-28T18:43:01.037Z,1780.0
2023-04-28T18:44:01.062Z,1708.7
2023-04-28T18:46:01.073Z,1566.2
2023-04-28T18:47:01.045Z,1501.2
2023-04-28T18:48:01.071Z,1436.2
2023-04-28T18:49:01.043Z,1375.3
2023-04-28T18:50:01.269Z,1314.3
2023-04-28T18:51:01.035Z,1253.4
2023-04-28T18:52:01.060Z,1197.9
2023-04-28T18:53:01.046Z,1142.5
2023-04-28T18:54:01.037Z,1089.5
2023-04-28T18:55:02.029Z,1036.5
2023-04-28T18:56:01.046Z,983.5
2023-04-28T18:57:01.061Z,933.6
2023-04-28T18:58:01.036Z,883.7
2023-04-28T18:59:01.037Z,835.2
2023-04-28T19:01:01.118Z,738.1
2023-04-28T19:02:01.047Z,693.2
2023-04-28T19:03:01.089Z,648.3
2023-04-28T19:04:01.141Z,607.8
2023-04-28T19:05:01.326Z,567.3
2023-04-28T19:06:01.114Z,526.9
2023-04-28T19:07:01.048Z,488.7
2023-04-28T19:08:01.050Z,450.5
2023-04-28T19:09:01.059Z,417.8
2023-04-28T19:11:01.042Z,352.5
2023-04-28T19:12:01.040Z,324.2
2023-04-28T19:13:01.070Z,295.9
2023-04-28T19:14:01.045Z,271.4
2023-04-28T19:16:01.056Z,222.3
2023-04-28T19:17:01.066Z,200.9
2023-04-28T19:18:01.069Z,179.5
2023-04-28T19:19:01.046Z,161.4
2023-04-28T19:20:01.697Z,143.3
2023-04-28T19:21:01.053Z,125.1
2023-04-28T19:22:01.050Z,110.5
2023-04-28T19:23:01.063Z,95.9
2023-04-28T19:24:01.053Z,84.7
2023-04-28T19:25:01.943Z,73.4
2023-04-28T19:26:01.111Z,62.1
2023-04-28T19:27:01.050Z,53.9
2023-04-28T19:28:01.051Z,45.6
2023-04-28T19:29:01.077Z,39.5
2023-04-28T19:31:01.065Z,27.4
2023-04-28T19:32:01.055Z,23.3
2023-04-28T19:33:01.080Z,19.3
2023-04-28T19:34:01.051Z,16.8
2023-04-28T19:35:01.300Z,14.3
2023-04-28T19:36:01.055Z,11.9
2023-04-28T19:37:01.057Z,10.3
2023-04-28T19:38:01.057Z,8.8
2023-04-28T19:39:01.059Z,7.7
2023-04-28T19:40:01.868Z,6.7
2023-04-28T19:41:01.128Z,5.6
2023-04-28T19:42:01.053Z,4.9
2023-04-28T19:43:01.070Z,4.1
2023-04-28T19:44:01.054Z,3.7
2023-04-28T19:46:01.075Z,2.7
2023-04-28T19:47:01.067Z,2.4
2023-04-28T19:48:01.164Z,2.1
2023-04-28T19:49:01.067Z,1.9
2023-04-28T19:51:02.101Z,1.5
2023-04-28T19:52:01.058Z,1.3
2023-04-28T19:53:01.055Z,1.1
2023-04-28T19:54:01.057Z,0.9
2023-04-28T19:55:02.114Z,0.8
2023-04-28T19:56:01.079Z,0.7
2023-04-28T19:57:01.069Z,0.6
2023-04-28T19:58:01.067Z,0.5
2023-04-28T20:01:01.066Z,0.3
2023-04-28T20:03:01.240Z,0.2
2023-04-28T20:04:01.202Z,0.1
